createdAt,value
2022-11-10T00:00:25.356Z,1.67
2022-11-10T00:03:13.125Z,1.30
2022-11-10T00:06:02.755Z,1.77
2022-11-10T00:08:50.361Z,1.60
2022-11-10T00:11:38.011Z,1.70
2022-11-10T00:14:42.889Z,1.70
2022-11-10T00:17:32.159Z,2.13
2022-11-10T00:20:19.924Z,1.80
2022-11-10T00:23:07.851Z,1.90
2022-11-10T00:25:55.403Z,2.00
2022-11-10T00:28:43.248Z,1.97
2022-11-10T00:31:30.705Z,2.17
2022-11-10T00:34:19.660Z,1.80
2022-11-10T00:37:07.505Z,1.97
2022-11-10T00:39:54.886Z,2.63
2022-11-10T00:42:42.760Z,2.83
2022-11-10T00:45:30.663Z,2.07
2022-11-10T00:48:18.115Z,2.67
2022-11-10T00:51:07.145Z,2.60
2022-11-10T00:53:54.940Z,2.33
2022-11-10T00:56:42.708Z,2.93
2022-11-10T00:59:30.495Z,2.43
2022-11-10T01:02:18.152Z,2.80
2022-11-10T01:05:06.054Z,2.20
2022-11-10T01:07:55.176Z,2.30
2022-11-10T01:10:42.980Z,2.83
2022-11-10T01:13:30.789Z,2.67
2022-11-10T01:16:20.776Z,2.83
2022-11-10T01:19:09.451Z,3.37
2022-11-10T01:21:58.024Z,2.90
2022-11-10T01:24:46.917Z,2.60
2022-11-10T01:27:34.521Z,2.50
2022-11-10T01:30:22.145Z,2.70
2022-11-10T01:33:09.754Z,3.23
2022-11-10T01:35:57.562Z,2.87
2022-11-10T01:38:45.762Z,2.60
2022-11-10T01:41:34.725Z,2.60
2022-11-10T01:44:24.237Z,2.30
2022-11-10T01:47:12.142Z,2.60
2022-11-10T01:49:59.711Z,2.60
2022-11-10T01:52:51.275Z,2.50
2022-11-10T01:55:42.132Z,2.63
2022-11-10T01:58:39.879Z,2.07
2022-11-10T02:01:27.828Z,2.47
2022-11-10T02:04:18.022Z,2.37
2022-11-10T02:07:06.969Z,2.03
2022-11-10T02:09:55.033Z,2.57
2022-11-10T02:12:42.751Z,2.63
2022-11-10T02:15:31.879Z,2.20
2022-11-10T02:18:19.673Z,2.23
2022-11-10T02:21:09.282Z,2.17
2022-11-10T02:23:57.168Z,2.60
2022-11-10T02:26:49.544Z,2.77
2022-11-10T02:29:37.075Z,2.17
2022-11-10T02:32:24.757Z,2.77
2022-11-10T02:35:12.698Z,2.20
2022-11-10T02:38:01.614Z,2.87
2022-11-10T02:40:50.834Z,2.40
2022-11-10T02:43:39.445Z,2.40
2022-11-10T02:46:27.321Z,2.40
2022-11-10T02:49:14.854Z,2.83
2022-11-10T02:52:02.538Z,2.60
2022-11-10T02:54:51.354Z,2.90
2022-11-10T02:57:39.465Z,1.90
2022-11-10T03:00:27.722Z,1.83
2022-11-10T03:03:15.611Z,2.40
2022-11-10T03:06:03.312Z,2.67
2022-11-10T03:08:50.927Z,2.43
2022-11-10T03:11:39.822Z,2.20
2022-11-10T03:14:27.631Z,2.63
2022-11-10T03:17:15.323Z,2.70
2022-11-10T03:20:03.015Z,2.73
2022-11-10T03:22:50.862Z,3.10
2022-11-10T03:25:38.649Z,3.03
2022-11-10T03:28:27.796Z,3.83
2022-11-10T03:31:15.422Z,3.47
2022-11-10T03:34:02.958Z,3.47
2022-11-10T03:36:50.706Z,3.60
2022-11-10T03:39:38.172Z,3.60
2022-11-10T03:42:25.723Z,4.50
2022-11-10T03:45:16.788Z,3.33
2022-11-10T03:48:04.539Z,3.50
2022-11-10T03:50:52.329Z,3.73
2022-11-10T03:53:39.859Z,3.90
2022-11-10T03:56:27.680Z,3.87
2022-11-10T03:59:15.387Z,5.20
2022-11-10T04:02:04.524Z,4.47
2022-11-10T04:05:09.558Z,4.00
2022-11-10T04:08:19.229Z,4.47
2022-11-10T04:11:07.062Z,4.63
2022-11-10T04:14:12.068Z,4.90
2022-11-10T04:17:00.177Z,5.03
2022-11-10T04:19:49.525Z,5.03
2022-11-10T04:22:54.531Z,4.80
2022-11-10T04:26:05.302Z,5.50
2022-11-10T04:28:55.436Z,5.77
2022-11-10T04:31:43.695Z,5.63
2022-11-10T04:34:31.080Z,5.67
2022-11-10T04:37:19.973Z,5.93
2022-11-10T04:40:09.052Z,5.90
2022-11-10T04:42:56.883Z,7.53
2022-11-10T04:45:44.981Z,6.87
2022-11-10T04:48:33.602Z,6.67
2022-11-10T04:51:22.479Z,6.83
2022-11-10T04:54:13.128Z,7.10
2022-11-10T04:57:00.747Z,7.67
2022-11-10T04:59:48.293Z,7.97
2022-11-10T05:02:39.622Z,7.33
2022-11-10T05:05:27.965Z,7.77
2022-11-10T05:08:16.326Z,7.63
2022-11-10T05:11:05.772Z,7.70
2022-11-10T05:13:53.295Z,8.00
2022-11-10T05:16:40.713Z,8.23
2022-11-10T05:19:28.341Z,8.77
2022-11-10T05:22:16.011Z,8.77
2022-11-10T05:25:03.823Z,8.87
2022-11-10T05:27:52.752Z,10.00
2022-11-10T05:30:41.239Z,9.50
2022-11-10T05:33:28.868Z,10.07
2022-11-10T05:36:16.345Z,9.70
2022-11-10T05:39:03.766Z,10.30
2022-11-10T05:41:51.255Z,9.67
2022-11-10T05:44:40.120Z,11.00
2022-11-10T05:47:27.838Z,10.67
2022-11-10T05:50:15.746Z,11.17
2022-11-10T05:53:03.705Z,9.80
2022-11-10T05:55:51.316Z,10.40
2022-11-10T05:58:38.772Z,11.73
2022-11-10T06:01:27.861Z,10.57
2022-11-10T06:04:15.571Z,10.30
2022-11-10T06:07:03.448Z,10.70
2022-11-10T06:09:50.834Z,11.07
2022-11-10T06:12:38.399Z,10.93
2022-11-10T06:15:26.858Z,10.93
2022-11-10T06:18:16.038Z,10.87
2022-11-10T06:21:03.776Z,11.80
2022-11-10T06:23:51.269Z,10.03
2022-11-10T06:26:39.002Z,11.13
2022-11-10T06:29:27.185Z,11.23
2022-11-10T06:32:14.786Z,9.77
2022-11-10T06:35:03.773Z,10.37
2022-11-10T06:37:59.545Z,10.00
2022-11-10T06:40:47.231Z,10.10
2022-11-10T06:43:34.885Z,8.97
2022-11-10T06:46:22.574Z,8.20
2022-11-10T06:49:10.033Z,9.87
2022-11-10T06:51:58.959Z,8.87
2022-11-10T06:54:46.949Z,8.47
2022-11-10T06:57:39.898Z,9.90
2022-11-10T07:00:28.813Z,8.77
2022-11-10T07:03:17.380Z,8.27
2022-11-10T07:06:05.522Z,7.50
2022-11-10T07:08:54.449Z,6.70
2022-11-10T07:11:43.207Z,8.37
2022-11-10T07:14:31.102Z,7.90
2022-11-10T07:17:18.455Z,7.90
2022-11-10T07:20:06.616Z,7.80
2022-11-10T07:23:00.227Z,8.40
2022-11-10T07:25:49.474Z,7.03
2022-11-10T07:28:37.300Z,7.23
2022-11-10T07:31:24.808Z,6.83
2022-11-10T07:34:12.374Z,6.87
2022-11-10T07:37:00.097Z,7.90
2022-11-10T07:39:47.765Z,7.17
2022-11-10T07:42:41.104Z,7.90
2022-11-10T07:45:29.353Z,6.70
2022-11-10T07:48:17.597Z,7.90
2022-11-10T07:51:05.244Z,5.27
2022-11-10T07:53:53.083Z,6.47
2022-11-10T07:56:41.152Z,8.23
2022-11-10T07:59:29.893Z,7.80
2022-11-10T08:02:17.431Z,8.07
2022-11-10T08:05:05.247Z,9.60
2022-11-10T08:07:54.846Z,8.87
2022-11-10T08:10:43.202Z,9.00
2022-11-10T08:13:30.637Z,8.83
2022-11-10T08:16:19.748Z,8.07
2022-11-10T08:19:07.255Z,9.60
2022-11-10T08:21:54.907Z,7.47
2022-11-10T08:24:42.495Z,7.90
2022-11-10T08:27:30.427Z,8.73
2022-11-10T08:30:18.575Z,8.73
2022-11-10T08:33:09.382Z,8.77
2022-11-10T08:35:56.890Z,8.90
2022-11-10T08:38:44.314Z,7.80
2022-11-10T08:41:31.953Z,8.60
2022-11-10T08:44:21.042Z,7.73
2022-11-10T08:47:08.934Z,9.80
2022-11-10T08:49:57.925Z,8.47
2022-11-10T08:52:45.813Z,8.03
2022-11-10T08:55:33.749Z,9.30
2022-11-10T08:58:22.728Z,9.50
2022-11-10T09:01:11.512Z,8.53
2022-11-10T09:03:59.335Z,10.30
2022-11-10T09:06:48.312Z,9.20
2022-11-10T09:09:36.128Z,9.07
2022-11-10T09:12:23.844Z,8.70
2022-11-10T09:15:12.613Z,8.97
2022-11-10T09:18:00.738Z,9.03
2022-11-10T09:20:48.301Z,8.15
2022-11-10T09:23:37.139Z,8.10
2022-11-10T09:26:24.831Z,8.27
2022-11-10T09:29:12.360Z,7.82
2022-11-10T09:32:00.298Z,8.53
2022-11-10T09:34:52.763Z,8.27
2022-11-10T09:37:41.141Z,8.95
2022-11-10T09:40:44.454Z,9.73
2022-11-10T09:43:39.507Z,7.75
2022-11-10T09:46:30.410Z,8.77
2022-11-10T09:49:29.133Z,8.98
2022-11-10T09:52:18.970Z,7.50
2022-11-10T09:55:18.102Z,7.77
2022-11-10T09:58:09.368Z,8.50
2022-11-10T10:01:05.138Z,7.70
2022-11-10T10:04:01.642Z,6.47
2022-11-10T10:07:10.566Z,7.50
2022-11-10T10:10:05.475Z,6.70
2022-11-10T10:13:12.452Z,7.10
2022-11-10T10:16:15.223Z,7.03
2022-11-10T10:19:14.919Z,7.65
2022-11-10T10:22:34.191Z,6.15
2022-11-10T10:25:24.233Z,6.85
2022-11-10T10:28:21.625Z,7.10
2022-11-10T10:31:19.083Z,6.45
2022-11-10T10:34:13.292Z,6.03
2022-11-10T10:37:00.777Z,6.93
2022-11-10T10:39:51.849Z,6.78
2022-11-10T10:42:39.893Z,7.82
2022-11-10T10:45:30.955Z,7.60
2022-11-10T10:48:30.356Z,4.85
2022-11-10T10:51:30.845Z,6.32
2022-11-10T10:54:29.833Z,5.78
2022-11-10T10:57:23.466Z,5.82
2022-11-10T11:00:22.012Z,5.43
2022-11-10T11:03:22.931Z,6.10
2022-11-10T11:06:21.578Z,6.13
2022-11-10T11:09:16.637Z,5.60
2022-11-10T11:12:07.284Z,5.78
2022-11-10T11:15:14.250Z,5.53
2022-11-10T11:18:03.602Z,7.18
2022-11-10T11:21:00.997Z,5.47
2022-11-10T11:24:06.835Z,4.80
2022-11-10T11:27:01.585Z,5.25
2022-11-10T11:30:09.904Z,5.47
2022-11-10T11:33:17.118Z,5.28
2022-11-10T11:36:17.382Z,5.47
2022-11-10T11:39:17.417Z,4.63
2022-11-10T11:42:16.422Z,6.00
2022-11-10T11:45:17.891Z,5.72
2022-11-10T11:48:44.865Z,4.20
2022-11-10T11:51:41.310Z,5.05
2022-11-10T11:54:33.714Z,5.03
2022-11-10T11:57:38.688Z,4.95
2022-11-10T12:00:31.236Z,5.88
2022-11-10T12:03:39.926Z,5.22
2022-11-10T12:06:42.661Z,4.38
2022-11-10T12:09:41.029Z,4.38
2022-11-10T12:12:58.847Z,4.10
2022-11-10T12:15:54.284Z,3.97
2022-11-10T12:18:51.016Z,4.32
2022-11-10T12:21:48.333Z,3.60
2022-11-10T12:24:53.023Z,4.07
2022-11-10T12:27:46.167Z,3.03
2022-11-10T12:30:35.560Z,4.35
2022-11-10T12:33:34.769Z,3.38
2022-11-10T12:36:23.550Z,4.25
2022-11-10T12:39:18.641Z,4.22
2022-11-10T12:42:09.158Z,3.40
2022-11-10T12:45:01.182Z,4.65
2022-11-10T12:47:49.729Z,4.28
2022-11-10T12:50:45.946Z,3.58
2022-11-10T12:53:36.573Z,4.20
2022-11-10T12:56:31.197Z,4.32
2022-11-10T12:59:34.389Z,3.72
2022-11-10T13:02:31.109Z,3.88
2022-11-10T13:05:37.474Z,3.73
2022-11-10T13:08:34.592Z,3.85
2022-11-10T13:11:31.102Z,5.30
2022-11-10T13:14:25.811Z,4.10
2022-11-10T13:17:52.818Z,3.78
2022-11-10T13:20:52.364Z,3.80
2022-11-10T13:24:19.965Z,3.72
2022-11-10T13:27:13.398Z,3.15
2022-11-10T13:30:01.602Z,4.18
2022-11-10T13:32:49.599Z,3.58
2022-11-10T13:35:55.539Z,3.47
2022-11-10T13:38:45.837Z,3.08
2022-11-10T13:41:35.640Z,2.97
2022-11-10T13:44:27.912Z,3.00
2022-11-10T13:47:48.361Z,2.78
2022-11-10T13:50:49.980Z,2.60
2022-11-10T13:53:45.833Z,3.00
2022-11-10T13:56:52.207Z,3.22
2022-11-10T13:59:50.432Z,3.28
2022-11-10T14:02:49.971Z,2.97
2022-11-10T14:06:07.287Z,2.70
2022-11-10T14:08:59.948Z,3.37
2022-11-10T14:11:51.164Z,2.45
2022-11-10T14:14:52.373Z,3.33
2022-11-10T14:17:45.337Z,2.45
2022-11-10T14:20:45.018Z,2.70
2022-11-10T14:23:37.910Z,2.50
2022-11-10T14:26:31.374Z,2.42
2022-11-10T14:29:38.452Z,2.75
2022-11-10T14:32:27.977Z,2.60
2022-11-10T14:35:22.635Z,2.92
2022-11-10T14:38:21.117Z,2.22
2022-11-10T14:41:18.534Z,2.45
2022-11-10T14:44:08.848Z,2.65
2022-11-10T14:46:57.288Z,2.10
2022-11-10T14:49:46.593Z,2.45
2022-11-10T14:52:38.631Z,2.25
2022-11-10T14:55:30.291Z,2.05
2022-11-10T14:58:24.440Z,2.60
2022-11-10T15:01:26.444Z,2.00
2022-11-10T15:04:16.468Z,1.70
2022-11-10T15:07:07.009Z,2.63
2022-11-10T15:10:14.318Z,2.00
2022-11-10T15:13:04.922Z,2.95
2022-11-10T15:15:53.550Z,2.38
2022-11-10T15:18:41.417Z,2.47
2022-11-10T15:21:34.039Z,1.88
2022-11-10T15:24:25.923Z,2.13
2022-11-10T15:27:23.050Z,2.50
2022-11-10T15:30:24.420Z,2.72
2022-11-10T15:33:12.542Z,2.25
2022-11-10T15:36:17.024Z,2.00
2022-11-10T15:39:20.000Z,1.50
2022-11-10T15:42:16.096Z,2.20
2022-11-10T15:45:03.877Z,2.35
2022-11-10T15:47:51.555Z,1.80
2022-11-10T15:50:39.576Z,2.33
2022-11-10T15:53:31.033Z,2.08
2022-11-10T15:56:21.822Z,1.83
2022-11-10T15:59:12.737Z,2.28
2022-11-10T16:02:00.996Z,2.30
2022-11-10T16:04:52.423Z,1.90
2022-11-10T16:07:42.197Z,2.80
2022-11-10T16:10:30.439Z,1.75
2022-11-10T16:13:22.191Z,2.25
2022-11-10T16:16:14.677Z,1.75
2022-11-10T16:19:02.600Z,2.17
2022-11-10T16:21:50.110Z,2.15
2022-11-10T16:24:37.932Z,1.55
2022-11-10T16:27:25.754Z,1.60
2022-11-10T16:30:15.777Z,1.87
2022-11-10T16:33:04.758Z,1.58
2022-11-10T16:35:54.030Z,1.73
2022-11-10T16:38:41.603Z,1.80
2022-11-10T16:41:29.412Z,1.85
2022-11-10T16:44:22.735Z,1.38
2022-11-10T16:47:18.906Z,1.85
2022-11-10T16:50:24.874Z,1.42
2022-11-10T16:53:17.177Z,1.50
2022-11-10T16:56:05.122Z,1.67
2022-11-10T16:58:54.498Z,1.23
2022-11-10T17:01:45.396Z,1.70
2022-11-10T17:04:33.001Z,1.40
2022-11-10T17:07:24.500Z,1.88
2022-11-10T17:10:15.813Z,1.38
2022-11-10T17:13:03.850Z,1.52
2022-11-10T17:15:53.562Z,1.73
2022-11-10T17:18:41.661Z,2.85
2022-11-10T17:21:33.243Z,2.45
2022-11-10T17:24:23.011Z,1.60
2022-11-10T17:27:11.949Z,1.63
2022-11-10T17:29:59.674Z,1.20
2022-11-10T17:33:06.116Z,1.77
2022-11-10T17:35:54.706Z,1.38
2022-11-10T17:38:42.628Z,1.60
2022-11-10T17:41:31.887Z,1.35
2022-11-10T17:44:20.782Z,1.65
2022-11-10T17:47:08.485Z,1.48
2022-11-10T17:49:55.911Z,2.22
2022-11-10T17:52:43.986Z,1.77
2022-11-10T17:55:34.443Z,1.50
2022-11-10T17:58:24.237Z,1.33
2022-11-10T18:01:21.992Z,1.80
2022-11-10T18:04:12.857Z,1.58
2022-11-10T18:07:00.633Z,1.80
2022-11-10T18:09:49.034Z,1.70
2022-11-10T18:12:36.786Z,2.53
2022-11-10T18:15:25.963Z,1.67
2022-11-10T18:18:14.698Z,1.60
2022-11-10T18:21:02.504Z,1.40
2022-11-10T18:23:49.982Z,1.75
2022-11-10T18:26:37.737Z,1.33
2022-11-10T18:29:25.183Z,1.13
2022-11-10T18:32:14.244Z,1.98
2022-11-10T18:35:01.828Z,1.88
2022-11-10T18:37:49.500Z,1.52
2022-11-10T18:40:36.864Z,1.88
2022-11-10T18:43:24.604Z,1.88
2022-11-10T18:46:12.584Z,1.88
2022-11-10T18:49:01.835Z,2.00
2022-11-10T18:51:49.419Z,1.90
2022-11-10T18:54:37.102Z,1.40
2022-11-10T18:57:24.671Z,1.05
2022-11-10T19:00:13.992Z,1.92
2022-11-10T19:03:01.419Z,1.98
2022-11-10T19:05:58.215Z,1.85
2022-11-10T19:08:46.904Z,1.60
2022-11-10T19:11:35.601Z,1.02
2022-11-10T19:14:23.442Z,1.63
2022-11-10T19:17:11.660Z,1.77
2022-11-10T19:19:59.375Z,1.88
2022-11-10T19:22:48.247Z,1.23
2022-11-10T19:25:35.858Z,2.05
2022-11-10T19:28:23.657Z,1.25
2022-11-10T19:31:14.143Z,2.80
2022-11-10T19:34:01.825Z,1.33
2022-11-10T19:36:49.813Z,1.40
2022-11-10T19:39:38.804Z,1.40
2022-11-10T19:42:26.612Z,1.88
2022-11-10T19:45:15.424Z,1.73
2022-11-10T19:48:02.904Z,1.63
2022-11-10T19:50:55.293Z,1.10
2022-11-10T19:53:43.841Z,1.63
2022-11-10T19:56:35.529Z,1.42
2022-11-10T19:59:23.071Z,1.70
2022-11-10T20:02:13.344Z,1.83
2022-11-10T20:05:17.282Z,1.35
2022-11-10T20:08:12.379Z,1.15
2022-11-10T20:11:04.919Z,1.55
2022-11-10T20:13:56.203Z,1.42
2022-11-10T20:16:44.032Z,1.30
2022-11-10T20:19:32.939Z,1.20
2022-11-10T20:22:22.154Z,1.73
2022-11-10T20:25:10.153Z,1.35
2022-11-10T20:27:58.655Z,1.50
2022-11-10T20:30:47.733Z,1.55
2022-11-10T20:33:36.161Z,1.50
2022-11-10T20:36:26.841Z,0.98
2022-11-10T20:39:14.601Z,1.60
2022-11-10T20:42:02.054Z,1.33
2022-11-10T20:44:49.611Z,1.30
2022-11-10T20:47:38.812Z,1.67
2022-11-10T20:50:26.523Z,0.93
2022-11-10T20:53:14.473Z,1.23
2022-11-10T20:56:02.645Z,1.40
2022-11-10T20:58:52.242Z,1.05
2022-11-10T21:01:40.187Z,0.90
2022-11-10T21:04:29.432Z,1.38
2022-11-10T21:07:17.235Z,1.10
2022-11-10T21:10:05.471Z,1.55
2022-11-10T21:12:53.233Z,1.15
2022-11-10T21:15:41.541Z,1.27
2022-11-10T21:18:30.752Z,1.70
2022-11-10T21:21:26.295Z,1.08
2022-11-10T21:24:13.964Z,1.73
2022-11-10T21:27:01.612Z,1.75
2022-11-10T21:29:49.137Z,1.60
2022-11-10T21:32:36.730Z,1.23
2022-11-10T21:35:24.368Z,1.75
2022-11-10T21:38:15.069Z,1.30
2022-11-10T21:41:02.596Z,1.30
2022-11-10T21:43:50.148Z,1.30
2022-11-10T21:46:37.660Z,1.40
2022-11-10T21:49:25.127Z,1.13
2022-11-10T21:52:12.540Z,1.27
2022-11-10T21:55:01.545Z,1.27
2022-11-10T21:57:49.506Z,1.60
2022-11-10T22:00:36.953Z,1.90
2022-11-10T22:03:25.110Z,1.50
2022-11-10T22:06:14.891Z,1.67
2022-11-10T22:09:02.774Z,1.50
2022-11-10T22:12:08.938Z,1.70
2022-11-10T22:15:14.096Z,1.98
2022-11-10T22:18:19.858Z,1.92
2022-11-10T22:21:09.389Z,2.05
2022-11-10T22:24:14.668Z,2.25
2022-11-10T22:27:05.096Z,2.30
2022-11-10T22:29:52.914Z,2.20
2022-11-10T22:32:42.462Z,2.20
2022-11-10T22:35:44.895Z,2.63
2022-11-10T22:38:34.919Z,2.35
2022-11-10T22:41:39.784Z,2.08
2022-11-10T22:44:29.021Z,2.03
2022-11-10T22:47:16.678Z,2.30
2022-11-10T22:50:04.359Z,1.38
2022-11-10T22:52:52.179Z,1.98
2022-11-10T22:55:39.808Z,1.80
2022-11-10T22:58:27.488Z,1.30
2022-11-10T23:01:16.440Z,1.77
2022-11-10T23:04:04.763Z,1.70
2022-11-10T23:06:52.666Z,1.80
2022-11-10T23:09:40.271Z,2.27
2022-11-10T23:12:27.650Z,1.92
2022-11-10T23:15:15.260Z,1.67
2022-11-10T23:18:06.833Z,1.60
2022-11-10T23:20:59.251Z,1.40
2022-11-10T23:23:48.206Z,1.63
2022-11-10T23:26:35.869Z,1.87
2022-11-10T23:29:23.375Z,2.10
2022-11-10T23:32:10.832Z,1.50
2022-11-10T23:34:59.692Z,1.80
2022-11-10T23:37:47.299Z,1.80
2022-11-10T23:40:34.820Z,1.63
2022-11-10T23:43:22.752Z,1.90
2022-11-10T23:46:10.683Z,2.00
2022-11-10T23:48:58.446Z,1.20
2022-11-10T23:51:47.422Z,1.70
2022-11-10T23:54:35.311Z,2.05
2022-11-10T23:57:22.762Z,1.63
